sensor_id;sensor_type;location;lat;lon;timestamp;P1;durP1;ratioP1;P2;durP2;ratioP2
10509;SDS011;5303;53.266;10.410;2023-07-29T00:02:05;8.13;;;7.33;;
10509;SDS011;5303;53.266;10.410;2023-07-29T00:04:30;8.80;;;6.77;;
10509;SDS011;5303;53.266;10.410;2023-07-29T00:06:56;8.97;;;7.13;;
10509;SDS011;5303;53.266;10.410;2023-07-29T00:09:21;8.37;;;7.60;;
10509;SDS011;5303;53.266;10.410;2023-07-29T00:11:46;8.47;;;7.57;;
10509;SDS011;5303;53.266;10.410;2023-07-29T00:14:12;7.67;;;6.87;;
10509;SDS011;5303;53.266;10.410;2023-07-29T00:16:37;8.20;;;7.40;;
10509;SDS011;5303;53.266;10.410;2023-07-29T00:19:02;8.07;;;7.27;;
10509;SDS011;5303;53.266;10.410;2023-07-29T00:21:27;10.50;;;7.30;;
10509;SDS011;5303;53.266;10.410;2023-07-29T00:23:53;8.03;;;7.23;;
10509;SDS011;5303;53.266;10.410;2023-07-29T00:26:18;8.80;;;7.17;;
10509;SDS011;5303;53.266;10.410;2023-07-29T00:28:43;7.07;;;6.47;;
10509;SDS011;5303;53.266;10.410;2023-07-29T00:31:09;7.00;;;6.30;;
10509;SDS011;5303;53.266;10.410;2023-07-29T00:33:34;7.70;;;6.90;;
10509;SDS011;5303;53.266;10.410;2023-07-29T00:35:59;7.70;;;6.90;;
10509;SDS011;5303;53.266;10.410;2023-07-29T00:38:28;7.53;;;6.83;;
10509;SDS011;5303;53.266;10.410;2023-07-29T00:40:53;6.90;;;6.17;;
10509;SDS011;5303;53.266;10.410;2023-07-29T00:43:20;7.30;;;6.50;;
10509;SDS011;5303;53.266;10.410;2023-07-29T00:45:45;7.37;;;6.77;;
10509;SDS011;5303;53.266;10.410;2023-07-29T00:48:11;7.30;;;6.60;;
10509;SDS011;5303;53.266;10.410;2023-07-29T00:50:37;6.87;;;6.27;;
10509;SDS011;5303;53.266;10.410;2023-07-29T00:53:02;8.20;;;7.40;;
10509;SDS011;5303;53.266;10.410;2023-07-29T00:55:27;6.90;;;6.30;;
10509;SDS011;5303;53.266;10.410;2023-07-29T00:57:53;7.63;;;6.93;;
10509;SDS011;5303;53.266;10.410;2023-07-29T01:00:19;7.50;;;6.70;;
10509;SDS011;5303;53.266;10.410;2023-07-29T01:02:45;7.13;;;6.43;;
10509;SDS011;5303;53.266;10.410;2023-07-29T01:05:11;7.63;;;6.87;;
10509;SDS011;5303;53.266;10.410;2023-07-29T01:08:06;8.07;;;6.47;;
10509;SDS011;5303;53.266;10.410;2023-07-29T01:11:15;7.87;;;7.17;;
10509;SDS011;5303;53.266;10.410;2023-07-29T01:14:02;8.57;;;7.30;;
10509;SDS011;5303;53.266;10.410;2023-07-29T01:16:32;9.80;;;7.63;;
10509;SDS011;5303;53.266;10.410;2023-07-29T01:19:04;8.17;;;7.23;;
10509;SDS011;5303;53.266;10.410;2023-07-29T01:21:35;7.60;;;6.93;;
10509;SDS011;5303;53.266;10.410;2023-07-29T01:24:02;8.30;;;7.40;;
10509;SDS011;5303;53.266;10.410;2023-07-29T01:26:27;7.87;;;7.07;;
10509;SDS011;5303;53.266;10.410;2023-07-29T01:28:54;10.23;;;7.50;;
10509;SDS011;5303;53.266;10.410;2023-07-29T01:31:26;7.93;;;7.13;;
10509;SDS011;5303;53.266;10.410;2023-07-29T01:33:59;10.50;;;8.50;;
10509;SDS011;5303;53.266;10.410;2023-07-29T01:36:31;9.17;;;8.27;;
10509;SDS011;5303;53.266;10.410;2023-07-29T01:38:59;9.17;;;8.13;;
10509;SDS011;5303;53.266;10.410;2023-07-29T01:41:27;9.70;;;8.67;;
10509;SDS011;5303;53.266;10.410;2023-07-29T01:43:53;9.67;;;7.87;;
10509;SDS011;5303;53.266;10.410;2023-07-29T01:46:21;9.57;;;8.23;;
10509;SDS011;5303;53.266;10.410;2023-07-29T01:48:46;8.63;;;7.77;;
10509;SDS011;5303;53.266;10.410;2023-07-29T01:51:12;9.10;;;8.20;;
10509;SDS011;5303;53.266;10.410;2023-07-29T01:53:37;9.83;;;8.33;;
10509;SDS011;5303;53.266;10.410;2023-07-29T01:56:03;9.20;;;8.17;;
10509;SDS011;5303;53.266;10.410;2023-07-29T01:58:28;8.17;;;7.33;;
10509;SDS011;5303;53.266;10.410;2023-07-29T02:00:53;8.43;;;7.63;;
10509;SDS011;5303;53.266;10.410;2023-07-29T02:03:19;8.90;;;7.70;;
10509;SDS011;5303;53.266;10.410;2023-07-29T02:05:44;8.90;;;8.10;;
10509;SDS011;5303;53.266;10.410;2023-07-29T02:08:10;9.80;;;8.77;;
10509;SDS011;5303;53.266;10.410;2023-07-29T02:10:35;11.20;;;8.03;;
10509;SDS011;5303;53.266;10.410;2023-07-29T02:13:03;9.27;;;8.33;;
10509;SDS011;5303;53.266;10.410;2023-07-29T02:15:29;9.33;;;8.43;;
10509;SDS011;5303;53.266;10.410;2023-07-29T02:17:54;9.97;;;9.03;;
10509;SDS011;5303;53.266;10.410;2023-07-29T02:20:20;8.90;;;8.00;;
10509;SDS011;5303;53.266;10.410;2023-07-29T02:22:45;10.50;;;9.47;;
10509;SDS011;5303;53.266;10.410;2023-07-29T02:25:10;9.80;;;8.87;;
10509;SDS011;5303;53.266;10.410;2023-07-29T02:27:36;9.40;;;8.50;;
10509;SDS011;5303;53.266;10.410;2023-07-29T02:30:01;10.57;;;8.53;;
10509;SDS011;5303;53.266;10.410;2023-07-29T02:32:27;9.70;;;8.80;;
10509;SDS011;5303;53.266;10.410;2023-07-29T02:34:53;10.53;;;9.33;;
10509;SDS011;5303;53.266;10.410;2023-07-29T02:37:18;10.20;;;8.67;;
10509;SDS011;5303;53.266;10.410;2023-07-29T02:39:43;10.33;;;8.77;;
10509;SDS011;5303;53.266;10.410;2023-07-29T02:42:09;11.37;;;9.37;;
10509;SDS011;5303;53.266;10.410;2023-07-29T02:44:34;11.40;;;8.63;;
10509;SDS011;5303;53.266;10.410;2023-07-29T02:47:00;11.83;;;9.70;;
10509;SDS011;5303;53.266;10.410;2023-07-29T02:49:25;12.23;;;9.90;;
10509;SDS011;5303;53.266;10.410;2023-07-29T02:51:50;11.10;;;9.93;;
10509;SDS011;5303;53.266;10.410;2023-07-29T02:54:16;13.40;;;10.30;;
10509;SDS011;5303;53.266;10.410;2023-07-29T02:56:41;10.87;;;9.77;;
10509;SDS011;5303;53.266;10.410;2023-07-29T02:59:06;14.90;;;10.30;;
10509;SDS011;5303;53.266;10.410;2023-07-29T03:01:31;14.50;;;10.00;;
10509;SDS011;5303;53.266;10.410;2023-07-29T03:03:57;10.73;;;9.60;;
10509;SDS011;5303;53.266;10.410;2023-07-29T03:06:22;10.77;;;9.77;;
10509;SDS011;5303;53.266;10.410;2023-07-29T03:08:48;10.67;;;9.53;;
10509;SDS011;5303;53.266;10.410;2023-07-29T03:11:13;13.17;;;10.50;;
10509;SDS011;5303;53.266;10.410;2023-07-29T03:13:40;11.67;;;10.47;;
10509;SDS011;5303;53.266;10.410;2023-07-29T03:16:10;11.27;;;10.07;;
10509;SDS011;5303;53.266;10.410;2023-07-29T03:18:39;15.50;;;11.07;;
10509;SDS011;5303;53.266;10.410;2023-07-29T03:21:05;12.83;;;10.90;;
10509;SDS011;5303;53.266;10.410;2023-07-29T03:23:30;11.67;;;10.53;;
10509;SDS011;5303;53.266;10.410;2023-07-29T03:25:57;12.67;;;9.97;;
10509;SDS011;5303;53.266;10.410;2023-07-29T03:28:27;12.63;;;11.43;;
10509;SDS011;5303;53.266;10.410;2023-07-29T03:30:53;12.77;;;11.57;;
10509;SDS011;5303;53.266;10.410;2023-07-29T03:33:21;12.47;;;11.17;;
10509;SDS011;5303;53.266;10.410;2023-07-29T03:35:47;14.07;;;11.70;;
10509;SDS011;5303;53.266;10.410;2023-07-29T03:38:13;14.87;;;11.63;;
10509;SDS011;5303;53.266;10.410;2023-07-29T03:40:39;12.40;;;11.13;;
10509;SDS011;5303;53.266;10.410;2023-07-29T03:43:04;14.07;;;12.20;;
10509;SDS011;5303;53.266;10.410;2023-07-29T03:45:30;12.63;;;11.37;;
10509;SDS011;5303;53.266;10.410;2023-07-29T03:47:56;13.97;;;11.77;;
10509;SDS011;5303;53.266;10.410;2023-07-29T03:50:21;14.17;;;11.33;;
10509;SDS011;5303;53.266;10.410;2023-07-29T03:52:46;12.67;;;11.37;;
10509;SDS011;5303;53.266;10.410;2023-07-29T03:55:12;13.53;;;11.63;;
10509;SDS011;5303;53.266;10.410;2023-07-29T03:57:37;15.83;;;11.57;;
10509;SDS011;5303;53.266;10.410;2023-07-29T04:00:03;14.23;;;12.70;;
10509;SDS011;5303;53.266;10.410;2023-07-29T04:02:28;13.80;;;11.60;;
10509;SDS011;5303;53.266;10.410;2023-07-29T04:04:53;12.83;;;11.53;;
10509;SDS011;5303;53.266;10.410;2023-07-29T04:07:19;13.77;;;11.70;;
10509;SDS011;5303;53.266;10.410;2023-07-29T04:09:44;16.47;;;12.70;;
10509;SDS011;5303;53.266;10.410;2023-07-29T04:12:10;15.60;;;11.97;;
10509;SDS011;5303;53.266;10.410;2023-07-29T04:14:35;12.33;;;11.03;;
10509;SDS011;5303;53.266;10.410;2023-07-29T04:17:00;15.07;;;11.70;;
10509;SDS011;5303;53.266;10.410;2023-07-29T04:19:26;12.70;;;11.40;;
10509;SDS011;5303;53.266;10.410;2023-07-29T04:21:51;14.67;;;12.90;;
10509;SDS011;5303;53.266;10.410;2023-07-29T04:24:16;14.27;;;12.73;;
10509;SDS011;5303;53.266;10.410;2023-07-29T04:26:42;14.13;;;12.63;;
10509;SDS011;5303;53.266;10.410;2023-07-29T04:29:07;17.27;;;12.40;;
10509;SDS011;5303;53.266;10.410;2023-07-29T04:31:32;13.07;;;11.67;;
10509;SDS011;5303;53.266;10.410;2023-07-29T04:33:57;13.53;;;12.13;;
10509;SDS011;5303;53.266;10.410;2023-07-29T04:36:23;18.93;;;13.17;;
10509;SDS011;5303;53.266;10.410;2023-07-29T04:38:48;13.43;;;12.03;;
10509;SDS011;5303;53.266;10.410;2023-07-29T04:41:14;15.40;;;12.13;;
10509;SDS011;5303;53.266;10.410;2023-07-29T04:43:39;14.50;;;11.27;;
10509;SDS011;5303;53.266;10.410;2023-07-29T04:46:07;11.40;;;10.17;;
10509;SDS011;5303;53.266;10.410;2023-07-29T04:48:33;11.27;;;10.07;;
10509;SDS011;5303;53.266;10.410;2023-07-29T04:50:59;12.90;;;11.00;;
10509;SDS011;5303;53.266;10.410;2023-07-29T04:53:24;11.40;;;9.80;;
10509;SDS011;5303;53.266;10.410;2023-07-29T04:55:49;14.87;;;10.37;;
10509;SDS011;5303;53.266;10.410;2023-07-29T04:58:14;11.37;;;9.30;;
10509;SDS011;5303;53.266;10.410;2023-07-29T05:00:40;10.47;;;9.37;;
10509;SDS011;5303;53.266;10.410;2023-07-29T05:03:05;12.13;;;10.67;;
10509;SDS011;5303;53.266;10.410;2023-07-29T05:05:31;14.07;;;10.50;;
10509;SDS011;5303;53.266;10.410;2023-07-29T05:07:57;14.37;;;11.40;;
10509;SDS011;5303;53.266;10.410;2023-07-29T05:10:22;12.80;;;10.83;;
10509;SDS011;5303;53.266;10.410;2023-07-29T05:12:47;13.67;;;11.10;;
10509;SDS011;5303;53.266;10.410;2023-07-29T05:15:12;12.73;;;10.97;;
10509;SDS011;5303;53.266;10.410;2023-07-29T05:17:38;14.03;;;12.10;;
10509;SDS011;5303;53.266;10.410;2023-07-29T05:20:03;12.77;;;10.63;;
10509;SDS011;5303;53.266;10.410;2023-07-29T05:22:29;14.13;;;11.93;;
10509;SDS011;5303;53.266;10.410;2023-07-29T05:24:54;14.03;;;12.57;;
10509;SDS011;5303;53.266;10.410;2023-07-29T05:27:19;13.00;;;11.60;;
10509;SDS011;5303;53.266;10.410;2023-07-29T05:29:45;14.07;;;12.60;;
10509;SDS011;5303;53.266;10.410;2023-07-29T05:32:10;12.77;;;11.57;;
10509;SDS011;5303;53.266;10.410;2023-07-29T05:34:35;13.20;;;11.60;;
10509;SDS011;5303;53.266;10.410;2023-07-29T05:37:00;13.97;;;12.33;;
10509;SDS011;5303;53.266;10.410;2023-07-29T05:39:26;12.17;;;10.87;;
10509;SDS011;5303;53.266;10.410;2023-07-29T05:41:51;13.13;;;11.73;;
10509;SDS011;5303;53.266;10.410;2023-07-29T05:44:16;15.53;;;12.87;;
10509;SDS011;5303;53.266;10.410;2023-07-29T05:46:41;14.67;;;11.67;;
10509;SDS011;5303;53.266;10.410;2023-07-29T05:49:07;13.33;;;11.90;;
10509;SDS011;5303;53.266;10.410;2023-07-29T05:51:32;13.33;;;11.30;;
10509;SDS011;5303;53.266;10.410;2023-07-29T05:53:57;13.47;;;11.03;;
10509;SDS011;5303;53.266;10.410;2023-07-29T05:56:23;15.53;;;11.43;;
10509;SDS011;5303;53.266;10.410;2023-07-29T05:58:48;14.20;;;11.70;;
10509;SDS011;5303;53.266;10.410;2023-07-29T06:01:13;13.30;;;11.90;;
10509;SDS011;5303;53.266;10.410;2023-07-29T06:03:38;12.30;;;11.00;;
10509;SDS011;5303;53.266;10.410;2023-07-29T06:06:03;10.80;;;9.50;;
10509;SDS011;5303;53.266;10.410;2023-07-29T06:08:29;12.87;;;11.43;;
10509;SDS011;5303;53.266;10.410;2023-07-29T06:10:54;12.40;;;11.10;;
10509;SDS011;5303;53.266;10.410;2023-07-29T06:13:19;11.07;;;9.97;;
10509;SDS011;5303;53.266;10.410;2023-07-29T06:15:45;11.60;;;10.60;;
10509;SDS011;5303;53.266;10.410;2023-07-29T06:18:10;13.77;;;10.60;;
10509;SDS011;5303;53.266;10.410;2023-07-29T06:20:35;11.93;;;10.73;;
10509;SDS011;5303;53.266;10.410;2023-07-29T06:23:01;13.37;;;11.97;;
10509;SDS011;5303;53.266;10.410;2023-07-29T06:25:27;12.70;;;11.37;;
10509;SDS011;5303;53.266;10.410;2023-07-29T06:27:52;12.60;;;11.30;;
10509;SDS011;5303;53.266;10.410;2023-07-29T06:30:17;11.67;;;10.47;;
10509;SDS011;5303;53.266;10.410;2023-07-29T06:32:43;12.03;;;10.70;;
10509;SDS011;5303;53.266;10.410;2023-07-29T06:35:08;13.13;;;11.50;;
10509;SDS011;5303;53.266;10.410;2023-07-29T06:37:33;10.13;;;9.13;;
10509;SDS011;5303;53.266;10.410;2023-07-29T06:39:59;12.60;;;11.30;;
10509;SDS011;5303;53.266;10.410;2023-07-29T06:42:24;11.77;;;10.00;;
10509;SDS011;5303;53.266;10.410;2023-07-29T06:44:49;8.83;;;7.97;;
10509;SDS011;5303;53.266;10.410;2023-07-29T06:47:14;13.40;;;9.57;;
10509;SDS011;5303;53.266;10.410;2023-07-29T06:49:40;11.00;;;8.57;;
10509;SDS011;5303;53.266;10.410;2023-07-29T06:52:05;10.37;;;9.33;;
10509;SDS011;5303;53.266;10.410;2023-07-29T06:54:30;10.27;;;8.40;;
10509;SDS011;5303;53.266;10.410;2023-07-29T06:56:56;8.77;;;7.88;;
10509;SDS011;5303;53.266;10.410;2023-07-29T06:59:21;10.30;;;8.20;;
10509;SDS011;5303;53.266;10.410;2023-07-29T07:01:46;9.80;;;7.83;;
10509;SDS011;5303;53.266;10.410;2023-07-29T07:04:11;9.52;;;7.80;;
10509;SDS011;5303;53.266;10.410;2023-07-29T07:06:37;7.82;;;7.03;;
10509;SDS011;5303;53.266;10.410;2023-07-29T07:09:02;7.82;;;7.03;;
10509;SDS011;5303;53.266;10.410;2023-07-29T07:11:28;6.90;;;6.25;;
10509;SDS011;5303;53.266;10.410;2023-07-29T07:13:53;8.65;;;6.07;;
10509;SDS011;5303;53.266;10.410;2023-07-29T07:16:18;6.75;;;5.15;;
10509;SDS011;5303;53.266;10.410;2023-07-29T07:18:44;6.22;;;5.55;;
10509;SDS011;5303;53.266;10.410;2023-07-29T07:21:09;5.97;;;5.38;;
10509;SDS011;5303;53.266;10.410;2023-07-29T07:23:34;6.25;;;4.97;;
10509;SDS011;5303;53.266;10.410;2023-07-29T07:25:59;5.50;;;4.38;;
10509;SDS011;5303;53.266;10.410;2023-07-29T07:28:26;5.25;;;4.40;;
10509;SDS011;5303;53.266;10.410;2023-07-29T07:30:52;5.43;;;4.60;;
10509;SDS011;5303;53.266;10.410;2023-07-29T07:33:17;5.68;;;4.40;;
10509;SDS011;5303;53.266;10.410;2023-07-29T07:35:42;4.78;;;3.90;;
10509;SDS011;5303;53.266;10.410;2023-07-29T07:38:08;4.30;;;3.78;;
10509;SDS011;5303;53.266;10.410;2023-07-29T07:40:34;4.45;;;3.83;;
10509;SDS011;5303;53.266;10.410;2023-07-29T07:43:00;4.45;;;4.00;;
10509;SDS011;5303;53.266;10.410;2023-07-29T07:45:26;4.88;;;4.30;;
10509;SDS011;5303;53.266;10.410;2023-07-29T07:47:51;4.35;;;3.95;;
10509;SDS011;5303;53.266;10.410;2023-07-29T07:50:18;4.00;;;3.60;;
10509;SDS011;5303;53.266;10.410;2023-07-29T07:52:43;4.63;;;3.80;;
10509;SDS011;5303;53.266;10.410;2023-07-29T07:55:09;5.30;;;3.90;;
10509;SDS011;5303;53.266;10.410;2023-07-29T07:57:34;4.18;;;3.75;;
10509;SDS011;5303;53.266;10.410;2023-07-29T07:59:59;4.00;;;3.30;;
10509;SDS011;5303;53.266;10.410;2023-07-29T08:02:24;3.90;;;3.50;;
10509;SDS011;5303;53.266;10.410;2023-07-29T08:04:50;5.85;;;3.78;;
10509;SDS011;5303;53.266;10.410;2023-07-29T08:07:15;3.28;;;3.00;;
10509;SDS011;5303;53.266;10.410;2023-07-29T08:09:40;3.65;;;3.35;;
10509;SDS011;5303;53.266;10.410;2023-07-29T08:12:05;3.95;;;3.65;;
10509;SDS011;5303;53.266;10.410;2023-07-29T08:14:31;3.72;;;3.42;;
10509;SDS011;5303;53.266;10.410;2023-07-29T08:16:56;4.53;;;4.00;;
10509;SDS011;5303;53.266;10.410;2023-07-29T08:19:22;5.68;;;4.03;;
10509;SDS011;5303;53.266;10.410;2023-07-29T08:21:47;4.30;;;3.90;;
10509;SDS011;5303;53.266;10.410;2023-07-29T08:24:12;5.35;;;4.22;;
10509;SDS011;5303;53.266;10.410;2023-07-29T08:26:38;5.55;;;4.22;;
10509;SDS011;5303;53.266;10.410;2023-07-29T08:29:03;4.57;;;4.07;;
10509;SDS011;5303;53.266;10.410;2023-07-29T08:31:28;5.05;;;4.53;;
10509;SDS011;5303;53.266;10.410;2023-07-29T08:33:53;4.47;;;4.13;;
10509;SDS011;5303;53.266;10.410;2023-07-29T08:36:19;4.38;;;3.97;;
10509;SDS011;5303;53.266;10.410;2023-07-29T08:38:44;4.47;;;4.10;;
10509;SDS011;5303;53.266;10.410;2023-07-29T08:43:52;4.72;;;4.32;;
10509;SDS011;5303;53.266;10.410;2023-07-29T08:46:31;5.72;;;4.90;;
10509;SDS011;5303;53.266;10.410;2023-07-29T08:48:57;7.82;;;5.18;;
10509;SDS011;5303;53.266;10.410;2023-07-29T08:51:24;6.55;;;5.93;;
10509;SDS011;5303;53.266;10.410;2023-07-29T08:53:52;6.68;;;6.07;;
10509;SDS011;5303;53.266;10.410;2023-07-29T08:56:18;7.32;;;6.65;;
10509;SDS011;5303;53.266;10.410;2023-07-29T08:58:43;6.75;;;6.22;;
10509;SDS011;5303;53.266;10.410;2023-07-29T09:01:08;7.95;;;7.22;;
10509;SDS011;5303;53.266;10.410;2023-07-29T09:03:34;8.10;;;7.40;;
10509;SDS011;5303;53.266;10.410;2023-07-29T09:05:59;8.40;;;7.60;;
10509;SDS011;5303;53.266;10.410;2023-07-29T09:08:27;11.27;;;8.18;;
10509;SDS011;5303;53.266;10.410;2023-07-29T09:10:53;10.30;;;8.20;;
10509;SDS011;5303;53.266;10.410;2023-07-29T09:13:20;10.73;;;9.57;;
10509;SDS011;5303;53.266;10.410;2023-07-29T09:15:45;12.40;;;10.60;;
10509;SDS011;5303;53.266;10.410;2023-07-29T09:18:11;14.83;;;10.53;;
10509;SDS011;5303;53.266;10.410;2023-07-29T09:20:45;16.87;;;12.30;;
10509;SDS011;5303;53.266;10.410;2023-07-29T09:23:12;14.00;;;11.80;;
10509;SDS011;5303;53.266;10.410;2023-07-29T09:25:38;15.17;;;12.37;;
10509;SDS011;5303;53.266;10.410;2023-07-29T09:28:08;20.60;;;13.80;;
10509;SDS011;5303;53.266;10.410;2023-07-29T09:30:42;23.47;;;14.20;;
10509;SDS011;5303;53.266;10.410;2023-07-29T09:33:09;28.40;;;15.20;;
10509;SDS011;5303;53.266;10.410;2023-07-29T09:35:35;17.50;;;12.57;;
10509;SDS011;5303;53.266;10.410;2023-07-29T09:38:02;22.03;;;13.77;;
10509;SDS011;5303;53.266;10.410;2023-07-29T09:40:38;21.07;;;13.73;;
10509;SDS011;5303;53.266;10.410;2023-07-29T09:43:05;9.97;;;8.00;;
10509;SDS011;5303;53.266;10.410;2023-07-29T09:45:32;10.87;;;7.47;;
10509;SDS011;5303;53.266;10.410;2023-07-29T09:47:59;10.33;;;6.57;;
10509;SDS011;5303;53.266;10.410;2023-07-29T09:50:25;7.93;;;5.80;;
10509;SDS011;5303;53.266;10.410;2023-07-29T09:52:51;8.43;;;6.40;;
10509;SDS011;5303;53.266;10.410;2023-07-29T09:55:17;8.77;;;6.00;;
10509;SDS011;5303;53.266;10.410;2023-07-29T09:57:44;9.37;;;6.80;;
10509;SDS011;5303;53.266;10.410;2023-07-29T10:00:13;11.03;;;7.20;;
10509;SDS011;5303;53.266;10.410;2023-07-29T10:02:39;13.23;;;8.97;;
10509;SDS011;5303;53.266;10.410;2023-07-29T10:05:06;10.03;;;8.97;;
10509;SDS011;5303;53.266;10.410;2023-07-29T10:07:33;12.27;;;9.50;;
10509;SDS011;5303;53.266;10.410;2023-07-29T10:10:02;14.93;;;10.97;;
10509;SDS011;5303;53.266;10.410;2023-07-29T10:12:30;19.67;;;14.40;;
10509;SDS011;5303;53.266;10.410;2023-07-29T10:14:58;21.20;;;15.30;;
10509;SDS011;5303;53.266;10.410;2023-07-29T10:17:25;25.57;;;16.43;;
10509;SDS011;5303;53.266;10.410;2023-07-29T10:19:51;28.97;;;18.30;;
10509;SDS011;5303;53.266;10.410;2023-07-29T10:22:17;21.33;;;17.30;;
10509;SDS011;5303;53.266;10.410;2023-07-29T10:24:45;24.87;;;19.73;;
10509;SDS011;5303;53.266;10.410;2023-07-29T10:27:13;23.25;;;18.90;;
10509;SDS011;5303;53.266;10.410;2023-07-29T10:29:43;26.37;;;20.40;;
10509;SDS011;5303;53.266;10.410;2023-07-29T10:32:09;22.08;;;18.98;;
10509;SDS011;5303;53.266;10.410;2023-07-29T10:34:36;20.38;;;17.60;;
10509;SDS011;5303;53.266;10.410;2023-07-29T10:37:03;22.73;;;18.23;;
10509;SDS011;5303;53.266;10.410;2023-07-29T10:39:32;30.02;;;20.38;;
10509;SDS011;5303;53.266;10.410;2023-07-29T10:42:05;23.42;;;19.20;;
10509;SDS011;5303;53.266;10.410;2023-07-29T10:47:15;20.98;;;18.00;;
10509;SDS011;5303;53.266;10.410;2023-07-29T10:49:45;19.80;;;17.13;;
10509;SDS011;5303;53.266;10.410;2023-07-29T10:52:15;19.40;;;17.40;;
10509;SDS011;5303;53.266;10.410;2023-07-29T10:54:52;19.90;;;17.83;;
10509;SDS011;5303;53.266;10.410;2023-07-29T10:57:34;18.33;;;16.45;;
10509;SDS011;5303;53.266;10.410;2023-07-29T11:00:02;17.90;;;16.23;;
10509;SDS011;5303;53.266;10.410;2023-07-29T11:02:30;17.92;;;15.82;;
10509;SDS011;5303;53.266;10.410;2023-07-29T11:04:56;17.58;;;15.88;;
10509;SDS011;5303;53.266;10.410;2023-07-29T11:07:23;19.35;;;17.40;;
10509;SDS011;5303;53.266;10.410;2023-07-29T11:09:55;17.92;;;16.08;;
10509;SDS011;5303;53.266;10.410;2023-07-29T11:12:37;19.85;;;17.17;;
10509;SDS011;5303;53.266;10.410;2023-07-29T11:15:03;17.33;;;15.52;;
10509;SDS011;5303;53.266;10.410;2023-07-29T11:17:35;18.38;;;16.67;;
10509;SDS011;5303;53.266;10.410;2023-07-29T11:20:02;17.85;;;16.13;;
10509;SDS011;5303;53.266;10.410;2023-07-29T11:22:28;14.75;;;13.38;;
10509;SDS011;5303;53.266;10.410;2023-07-29T11:24:54;15.40;;;13.90;;
10509;SDS011;5303;53.266;10.410;2023-07-29T11:27:20;14.57;;;13.13;;
10509;SDS011;5303;53.266;10.410;2023-07-29T11:29:46;13.15;;;11.95;;
10509;SDS011;5303;53.266;10.410;2023-07-29T11:32:11;14.23;;;12.82;;
10509;SDS011;5303;53.266;10.410;2023-07-29T11:34:37;13.35;;;12.15;;
10509;SDS011;5303;53.266;10.410;2023-07-29T11:37:05;14.43;;;13.13;;
10509;SDS011;5303;53.266;10.410;2023-07-29T11:39:31;13.65;;;12.45;;
10509;SDS011;5303;53.266;10.410;2023-07-29T11:41:57;14.35;;;12.90;;
10509;SDS011;5303;53.266;10.410;2023-07-29T11:44:22;11.63;;;10.63;;
10509;SDS011;5303;53.266;10.410;2023-07-29T11:46:48;12.18;;;11.18;;
10509;SDS011;5303;53.266;10.410;2023-07-29T11:49:13;12.50;;;11.40;;
10509;SDS011;5303;53.266;10.410;2023-07-29T11:51:39;12.60;;;11.30;;
10509;SDS011;5303;53.266;10.410;2023-07-29T11:54:06;12.40;;;11.02;;
10509;SDS011;5303;53.266;10.410;2023-07-29T11:56:32;10.20;;;9.27;;
10509;SDS011;5303;53.266;10.410;2023-07-29T11:58:57;11.02;;;10.02;;
10509;SDS011;5303;53.266;10.410;2023-07-29T12:01:23;10.70;;;9.77;;
10509;SDS011;5303;53.266;10.410;2023-07-29T12:03:49;11.07;;;10.02;;
10509;SDS011;5303;53.266;10.410;2023-07-29T12:06:16;12.00;;;10.88;;
10509;SDS011;5303;53.266;10.410;2023-07-29T12:08:42;10.93;;;9.88;;
10509;SDS011;5303;53.266;10.410;2023-07-29T12:11:08;10.10;;;9.20;;
10509;SDS011;5303;53.266;10.410;2023-07-29T12:13:35;8.80;;;7.90;;
10509;SDS011;5303;53.266;10.410;2023-07-29T12:16:01;7.55;;;6.93;;
10509;SDS011;5303;53.266;10.410;2023-07-29T12:18:31;6.68;;;6.07;;
10509;SDS011;5303;53.266;10.410;2023-07-29T12:20:57;8.45;;;7.65;;
10509;SDS011;5303;53.266;10.410;2023-07-29T12:23:25;8.43;;;7.55;;
10509;SDS011;5303;53.266;10.410;2023-07-29T12:25:52;7.15;;;6.55;;
10509;SDS011;5303;53.266;10.410;2023-07-29T12:28:24;7.35;;;6.65;;
10509;SDS011;5303;53.266;10.410;2023-07-29T12:30:56;6.65;;;6.05;;
10509;SDS011;5303;53.266;10.410;2023-07-29T12:33:37;6.65;;;5.95;;
10509;SDS011;5303;53.266;10.410;2023-07-29T12:36:04;6.47;;;5.88;;
10509;SDS011;5303;53.266;10.410;2023-07-29T12:38:29;5.60;;;5.03;;
10509;SDS011;5303;53.266;10.410;2023-07-29T12:40:55;4.47;;;4.07;;
10509;SDS011;5303;53.266;10.410;2023-07-29T12:43:21;5.55;;;4.30;;
10509;SDS011;5303;53.266;10.410;2023-07-29T12:45:46;4.38;;;3.97;;
10509;SDS011;5303;53.266;10.410;2023-07-29T12:48:13;4.47;;;4.03;;
10509;SDS011;5303;53.266;10.410;2023-07-29T12:50:40;4.28;;;3.88;;
10509;SDS011;5303;53.266;10.410;2023-07-29T12:53:06;3.80;;;3.50;;
10509;SDS011;5303;53.266;10.410;2023-07-29T12:55:33;6.22;;;3.80;;
10509;SDS011;5303;53.266;10.410;2023-07-29T12:57:58;3.85;;;3.55;;
10509;SDS011;5303;53.266;10.410;2023-07-29T13:00:24;3.97;;;3.45;;
10509;SDS011;5303;53.266;10.410;2023-07-29T13:02:49;3.85;;;3.50;;
10509;SDS011;5303;53.266;10.410;2023-07-29T13:05:14;5.32;;;3.88;;
10509;SDS011;5303;53.266;10.410;2023-07-29T13:07:42;5.60;;;3.70;;
10509;SDS011;5303;53.266;10.410;2023-07-29T13:10:08;4.18;;;3.78;;
10509;SDS011;5303;53.266;10.410;2023-07-29T13:12:34;3.88;;;3.58;;
10509;SDS011;5303;53.266;10.410;2023-07-29T13:15:00;4.60;;;3.58;;
10509;SDS011;5303;53.266;10.410;2023-07-29T13:17:25;3.50;;;3.22;;
10509;SDS011;5303;53.266;10.410;2023-07-29T13:19:50;3.63;;;3.10;;
10509;SDS011;5303;53.266;10.410;2023-07-29T13:22:16;3.80;;;3.20;;
10509;SDS011;5303;53.266;10.410;2023-07-29T13:24:41;3.92;;;3.38;;
10509;SDS011;5303;53.266;10.410;2023-07-29T13:27:07;4.15;;;3.25;;
10509;SDS011;5303;53.266;10.410;2023-07-29T13:29:32;3.40;;;3.05;;
10509;SDS011;5303;53.266;10.410;2023-07-29T13:31:57;4.32;;;3.00;;
10509;SDS011;5303;53.266;10.410;2023-07-29T13:34:23;3.05;;;2.63;;
10509;SDS011;5303;53.266;10.410;2023-07-29T13:36:48;2.80;;;2.60;;
10509;SDS011;5303;53.266;10.410;2023-07-29T13:39:13;5.45;;;2.95;;
10509;SDS011;5303;53.266;10.410;2023-07-29T13:41:38;2.97;;;2.78;;
10509;SDS011;5303;53.266;10.410;2023-07-29T13:44:04;3.55;;;3.25;;
10509;SDS011;5303;53.266;10.410;2023-07-29T13:46:29;4.38;;;3.17;;
10509;SDS011;5303;53.266;10.410;2023-07-29T13:48:54;4.82;;;3.10;;
10509;SDS011;5303;53.266;10.410;2023-07-29T13:51:20;4.75;;;3.20;;
10509;SDS011;5303;53.266;10.410;2023-07-29T13:53:45;4.15;;;2.97;;
10509;SDS011;5303;53.266;10.410;2023-07-29T13:56:10;2.78;;;2.58;;
10509;SDS011;5303;53.266;10.410;2023-07-29T13:58:36;4.35;;;2.60;;
10509;SDS011;5303;53.266;10.410;2023-07-29T14:01:01;3.10;;;2.78;;
10509;SDS011;5303;53.266;10.410;2023-07-29T14:03:26;3.35;;;3.00;;
10509;SDS011;5303;53.266;10.410;2023-07-29T14:05:52;3.83;;;2.50;;
10509;SDS011;5303;53.266;10.410;2023-07-29T14:08:17;3.30;;;2.30;;
10509;SDS011;5303;53.266;10.410;2023-07-29T14:10:42;3.30;;;2.22;;
10509;SDS011;5303;53.266;10.410;2023-07-29T14:13:07;3.72;;;2.53;;
10509;SDS011;5303;53.266;10.410;2023-07-29T14:15:33;2.40;;;2.20;;
10509;SDS011;5303;53.266;10.410;2023-07-29T14:17:58;3.50;;;2.33;;
10509;SDS011;5303;53.266;10.410;2023-07-29T14:20:23;2.38;;;2.17;;
10509;SDS011;5303;53.266;10.410;2023-07-29T14:22:49;4.32;;;2.50;;
10509;SDS011;5303;53.266;10.410;2023-07-29T14:25:14;3.60;;;2.25;;
10509;SDS011;5303;53.266;10.410;2023-07-29T14:27:40;2.60;;;2.40;;
10509;SDS011;5303;53.266;10.410;2023-07-29T14:30:06;3.25;;;2.60;;
10509;SDS011;5303;53.266;10.410;2023-07-29T14:32:32;3.28;;;2.70;;
10509;SDS011;5303;53.266;10.410;2023-07-29T14:34:57;4.70;;;2.45;;
10509;SDS011;5303;53.266;10.410;2023-07-29T14:37:22;5.05;;;2.20;;